Time;durP1;ratioP1;P1;durP2;ratioP2;P2;SDS_P1;SDS_P2;PMS_P1;PMS_P2;Temp;Humidity;BMP_temperature;BMP_pressure;BME280_temperature;BME280_humidity;BME280_pressure;Samples;Min_cycle;Max_cycle;Signal;HPM_P1;HPM_P2
2024/04/06 00:00:20;;;;;;;4.03;1.40;;;;;;;13.15;85.38;95847.75;5067037;28;20193;-85
2024/04/06 00:02:46;;;;;;;6.33;1.50;;;;;;;13.18;85.27;95848.09;5071151;28;20668;-84
2024/04/06 00:05:13;;;;;;;2.73;1.10;;;;;;;13.06;85.45;95855.22;5072091;28;20203;-84
2024/04/06 00:07:38;;;;;;;2.43;1.10;;;;;;;13.03;85.60;95849.53;5065001;28;20214;-85
2024/04/06 00:10:07;;;;;;;3.47;1.50;;;;;;;12.91;86.42;95851.34;5061411;28;20193;-86
2024/04/06 00:12:32;;;;;;;3.07;1.50;;;;;;;12.88;86.95;95849.19;5061975;28;20288;-85
2024/04/06 00:14:59;;;;;;;2.57;1.60;;;;;;;12.83;86.36;95841.94;5062327;28;20966;-85
2024/04/06 00:17:26;;;;;;;2.00;1.10;;;;;;;12.72;87.66;95832.13;5060951;28;20243;-85
2024/04/06 00:19:53;;;;;;;2.13;1.20;;;;;;;12.58;88.08;95835.97;5062167;28;20193;-85
2024/04/06 00:22:19;;;;;;;2.70;1.53;;;;;;;12.62;87.33;95831.88;5059754;28;20212;-85
2024/04/06 00:24:46;;;;;;;3.30;1.30;;;;;;;12.59;86.49;95832.31;5060879;28;20197;-83
2024/04/06 00:27:12;;;;;;;2.10;1.37;;;;;;;12.55;87.06;95831.16;5065258;28;20621;-85
2024/04/06 00:29:38;;;;;;;3.20;1.50;;;;;;;12.62;86.84;95831.88;5056783;28;20201;-85
2024/04/06 00:32:05;;;;;;;2.83;1.60;;;;;;;12.61;86.69;95837.38;5058717;28;20189;-85
2024/04/06 00:34:34;;;;;;;3.27;1.30;;;;;;;12.40;87.31;95852.69;5058430;28;20676;-85
2024/04/06 00:37:01;;;;;;;1.57;1.20;;;;;;;12.40;87.91;95854.53;5057841;28;20221;-85
2024/04/06 00:39:29;;;;;;;2.57;1.10;;;;;;;12.48;87.40;95865.56;5058149;28;20193;-85
2024/04/06 00:41:54;;;;;;;2.30;1.23;;;;;;;12.58;88.01;95848.41;5057348;28;20650;-85
2024/04/06 00:44:22;;;;;;;2.93;1.57;;;;;;;12.26;87.41;95856.53;5057322;28;20198;-85
2024/04/06 00:46:49;;;;;;;2.63;1.53;;;;;;;11.98;89.33;95863.38;5058970;28;20260;-85
2024/04/06 00:49:16;;;;;;;3.57;1.47;;;;;;;11.98;90.17;95868.66;5057528;28;20201;-85
2024/04/06 00:51:43;;;;;;;1.77;1.30;;;;;;;12.14;90.29;95860.13;5058227;28;20194;-85
2024/04/06 00:54:10;;;;;;;2.53;1.17;;;;;;;11.89;90.98;95857.59;5056504;28;20208;-85
2024/04/06 00:56:36;;;;;;;6.27;1.50;;;;;;;11.85;91.33;95851.13;5056682;28;20229;-85
2024/04/06 00:59:03;;;;;;;2.47;1.40;;;;;;;11.84;92.01;95851.34;5059321;28;20215;-85
2024/04/06 01:01:29;;;;;;;2.63;2.37;;;;;;;11.69;92.37;95857.00;5057042;28;20193;-85
2024/04/06 01:03:55;;;;;;;1.87;1.40;;;;;;;11.39;93.26;95856.81;5056663;28;20570;-85
2024/04/06 01:06:21;;;;;;;2.63;1.67;;;;;;;11.37;93.88;95858.88;5057117;28;20216;-85
2024/04/06 01:08:49;;;;;;;4.53;1.43;;;;;;;11.48;93.90;95852.09;5058051;28;20197;-85
2024/04/06 01:11:15;;;;;;;1.80;1.70;;;;;;;11.57;93.19;95850.78;5057815;28;20243;-85
2024/04/06 01:13:42;;;;;;;5.13;1.63;;;;;;;11.59;92.75;95852.19;5058080;28;20193;-85
2024/04/06 01:16:08;;;;;;;2.03;1.33;;;;;;;11.60;92.35;95847.69;5058916;28;20217;-84
2024/04/06 01:18:35;;;;;;;2.57;1.70;;;;;;;11.34;93.23;95843.47;5057128;28;20193;-85
2024/04/06 01:21:03;;;;;;;1.87;1.50;;;;;;;11.54;92.88;95852.03;5057329;28;20205;-85
2024/04/06 01:23:30;;;;;;;2.63;1.60;;;;;;;11.46;92.92;95851.50;5056327;28;20275;-85
2024/04/06 01:25:57;;;;;;;3.93;1.60;;;;;;;11.50;93.30;95856.13;5056961;28;20193;-85
2024/04/06 01:28:24;;;;;;;4.67;1.50;;;;;;;11.53;92.65;95853.03;5059098;28;20220;-85
2024/04/06 01:30:50;;;;;;;1.40;1.30;;;;;;;11.47;93.10;95848.66;5058621;28;20715;-84
2024/04/06 01:33:16;;;;;;;3.03;1.67;;;;;;;11.39;93.63;95851.56;5057227;28;20190;-85
2024/04/06 01:35:42;;;;;;;2.60;1.97;;;;;;;11.23;94.84;95854.75;5056920;28;20217;-85
2024/04/06 01:38:09;;;;;;;2.60;1.97;;;;;;;11.35;95.75;95847.75;5056254;28;20751;-85
2024/04/06 01:40:35;;;;;;;2.43;1.70;;;;;;;11.37;95.14;95848.31;5056797;28;20198;-85
2024/04/06 01:43:04;;;;;;;4.40;1.47;;;;;;;11.48;94.57;95847.59;5058444;28;20270;-85
2024/04/06 01:45:29;;;;;;;4.93;2.37;;;;;;;11.51;94.06;95843.72;5037176;28;20186;-85
2024/04/06 01:47:56;;;;;;;1.93;1.50;;;;;;;11.21;93.94;95848.88;5036433;28;20210;-85
2024/04/06 01:50:22;;;;;;;1.60;1.50;;;;;;;11.27;93.02;95852.50;5039052;28;20692;-85
2024/04/06 01:52:49;;;;;;;1.80;1.33;;;;;;;11.18;92.62;95844.03;5038329;28;20199;-85
2024/04/06 01:55:15;;;;;;;2.40;1.40;;;;;;;11.23;93.88;95852.09;5036435;28;20221;-85
2024/04/06 01:57:42;;;;;;;1.93;1.50;;;;;;;11.03;94.10;95843.56;5036585;28;20288;-85
2024/04/06 02:00:10;;;;;;;2.20;1.30;;;;;;;11.11;94.56;95848.56;5036811;28;20194;-84
2024/04/06 02:02:37;;;;;;;3.33;1.80;;;;;;;11.07;95.25;95844.75;5036449;28;20200;-85
2024/04/06 02:05:04;;;;;;;2.07;1.50;;;;;;;11.09;95.23;95845.31;5036347;28;20716;-84
2024/04/06 02:07:30;;;;;;;2.97;1.53;;;;;;;11.04;96.11;95834.63;5037022;28;20309;-85
2024/04/06 02:09:56;;;;;;;2.93;1.63;;;;;;;11.08;95.38;95833.97;5037878;28;20260;-85
2024/04/06 02:12:23;;;;;;;3.67;1.73;;;;;;;11.05;96.26;95841.50;5037971;28;20186;-85
2024/04/06 02:14:49;;;;;;;3.83;1.67;;;;;;;11.06;95.83;95837.88;5037113;28;20729;-85
2024/04/06 02:17:17;;;;;;;3.80;1.80;;;;;;;11.05;95.45;95844.16;5038705;28;20221;-85
2024/04/06 02:19:43;;;;;;;2.40;1.70;;;;;;;10.94;95.78;95837.75;5037562;28;20194;-85
2024/04/06 02:22:10;;;;;;;3.27;1.40;;;;;;;10.97;96.29;95842.59;5039468;28;20190;-85
2024/04/06 02:24:36;;;;;;;3.60;1.90;;;;;;;10.95;96.56;95844.63;5039124;28;20200;-85
2024/04/06 02:27:04;;;;;;;2.80;1.57;;;;;;;10.86;97.23;95840.66;5039777;28;20678;-85
2024/04/06 02:29:30;;;;;;;3.60;1.70;;;;;;;10.91;97.82;95840.81;5037364;28;20194;-85
2024/04/06 02:31:57;;;;;;;5.77;2.00;;;;;;;10.78;98.09;95840.91;5037708;28;20202;-85
2024/04/06 02:34:24;;;;;;;2.40;1.53;;;;;;;10.87;98.59;95837.00;5039177;28;20240;-85
2024/04/06 02:36:51;;;;;;;4.17;1.80;;;;;;;10.65;100.00;95842.81;5040119;28;20217;-85
2024/04/06 02:39:17;;;;;;;5.03;1.80;;;;;;;10.55;100.00;95848.53;5038470;28;20593;-85
2024/04/06 02:41:44;;;;;;;5.93;1.90;;;;;;;10.68;100.00;95845.03;5038923;28;20200;-85
2024/04/06 02:44:10;;;;;;;3.40;1.70;;;;;;;10.67;100.00;95838.13;5039151;28;20198;-86
2024/04/06 02:46:37;;;;;;;2.77;1.90;;;;;;;10.72;100.00;95838.31;5039269;28;20210;-85
2024/04/06 02:49:03;;;;;;;4.27;1.90;;;;;;;10.65;100.00;95843.63;5039517;28;20194;-85
2024/04/06 02:51:31;;;;;;;3.73;2.07;;;;;;;10.47;100.00;95833.00;5040362;28;20202;-86
2024/04/06 02:53:57;;;;;;;2.47;1.77;;;;;;;10.62;100.00;95840.63;5042385;28;20209;-85
2024/04/06 02:56:25;;;;;;;5.07;1.87;;;;;;;10.53;100.00;95844.50;5050695;28;20240;-84
2024/04/06 02:58:50;;;;;;;4.53;2.20;;;;;;;10.60;100.00;95846.09;5056906;28;20194;-83
2024/04/06 03:01:17;;;;;;;2.23;1.80;;;;;;;10.49;100.00;95854.66;5042481;28;20197;-85
2024/04/06 03:03:44;;;;;;;3.43;1.70;;;;;;;10.50;100.00;95850.22;5039447;28;20194;-85
2024/04/06 03:06:10;;;;;;;2.43;2.03;;;;;;;10.51;100.00;95846.53;5040940;28;20201;-84
2024/04/06 03:08:38;;;;;;;4.17;2.00;;;;;;;10.60;100.00;95867.16;5041005;28;20194;-85
2024/04/06 03:11:05;;;;;;;4.67;1.73;;;;;;;10.63;99.61;95856.22;5039805;28;20193;-84
2024/04/06 03:13:30;;;;;;;5.27;1.97;;;;;;;10.55;99.54;95856.44;5040860;28;20182;-85
2024/04/06 03:15:57;;;;;;;3.67;1.77;;;;;;;10.45;99.47;95856.13;5039605;28;20222;-85
2024/04/06 03:18:23;;;;;;;2.97;1.80;;;;;;;10.32;99.90;95849.09;5041754;28;20214;-85
2024/04/06 03:20:50;;;;;;;2.50;1.70;;;;;;;10.28;100.00;95861.06;5040009;28;20654;-85
2024/04/06 03:23:16;;;;;;;1.90;1.60;;;;;;;10.33;100.00;95858.63;5040950;28;20198;-84
2024/04/06 03:25:44;;;;;;;2.07;1.57;;;;;;;10.28;100.00;95857.63;5039886;28;20197;-84
2024/04/06 03:28:09;;;;;;;5.60;1.97;;;;;;;10.27;100.00;95859.44;5038951;28;20275;-85
2024/04/06 03:30:36;;;;;;;1.60;1.40;;;;;;;10.25;100.00;95856.22;5050853;28;20204;-85
2024/04/06 03:33:03;;;;;;;3.83;1.80;;;;;;;10.25;100.00;95850.94;5059650;28;20243;-85
2024/04/06 03:35:31;;;;;;;3.37;1.70;;;;;;;10.10;100.00;95850.38;5058653;28;20217;-85
2024/04/06 03:37:58;;;;;;;1.77;1.63;;;;;;;10.16;100.00;95849.56;5059751;28;20281;-85
2024/04/06 03:40:23;;;;;;;2.73;1.87;;;;;;;10.16;100.00;95862.72;5060146;28;20189;-85
2024/04/06 03:42:58;;;;;;;4.10;1.87;;;;;;;10.16;100.00;95856.66;5060936;28;20190;-85
2024/04/06 03:45:25;;;;;;;1.73;1.57;;;;;;;9.98;100.00;95857.31;5058480;28;20185;-85
2024/04/06 03:47:51;;;;;;;2.47;1.80;;;;;;;10.00;100.00;95860.53;5059280;28;20213;-85
2024/04/06 03:50:17;;;;;;;3.80;2.10;;;;;;;10.01;100.00;95867.41;5061176;28;20200;-85
2024/04/06 03:52:44;;;;;;;3.63;1.77;;;;;;;9.99;100.00;95864.19;5059703;28;20201;-85
2024/04/06 03:55:10;;;;;;;4.00;1.63;;;;;;;9.97;100.00;95862.75;5058841;28;20189;-85
2024/04/06 03:57:37;;;;;;;2.80;2.10;;;;;;;9.85;100.00;95867.09;5060760;28;20619;-84
2024/04/06 04:00:08;;;;;;;2.67;1.63;;;;;;;9.81;100.00;95871.94;5059810;28;20263;-85
2024/04/06 04:02:35;;;;;;;6.37;2.20;;;;;;;9.80;100.00;95866.88;5062128;28;20221;-85
2024/04/06 04:05:00;;;;;;;2.97;2.03;;;;;;;9.67;100.00;95876.44;5060405;28;20607;-85
2024/04/06 04:07:27;;;;;;;2.20;1.90;;;;;;;9.84;100.00;95861.00;5059501;28;20217;-84
2024/04/06 04:09:53;;;;;;;2.77;2.10;;;;;;;9.79;100.00;95854.75;5058998;28;20197;-85
2024/04/06 04:12:20;;;;;;;3.10;1.70;;;;;;;9.81;100.00;95850.88;5059695;28;20575;-85
2024/04/06 04:14:46;;;;;;;1.80;1.63;;;;;;;9.73;100.00;95849.28;5059191;28;20197;-86
2024/04/06 04:17:14;;;;;;;3.50;1.70;;;;;;;9.77;100.00;95846.25;5061025;28;20225;-85
2024/04/06 04:19:39;;;;;;;3.17;1.90;;;;;;;9.72;100.00;95857.38;5060637;28;20201;-85
2024/04/06 04:22:06;;;;;;;3.30;1.50;;;;;;;9.52;100.00;95854.78;5060606;28;20602;-85
2024/04/06 04:24:32;;;;;;;2.03;1.80;;;;;;;9.52;100.00;95867.16;5061517;28;20193;-85
2024/04/06 04:26:59;;;;;;;4.53;2.17;;;;;;;9.52;100.00;95870.56;5060621;28;20220;-85
2024/04/06 04:29:25;;;;;;;4.77;1.90;;;;;;;9.29;100.00;95877.31;5060858;28;20727;-86
2024/04/06 04:31:52;;;;;;;3.63;2.00;;;;;;;9.47;100.00;95874.84;5061230;28;20194;-85
2024/04/06 04:34:19;;;;;;;3.47;2.03;;;;;;;9.54;100.00;95873.84;5060580;28;20194;-85
2024/04/06 04:36:46;;;;;;;2.47;1.90;;;;;;;9.50;100.00;95871.78;5061211;28;20225;-84
2024/04/06 04:39:12;;;;;;;4.47;1.90;;;;;;;9.51;100.00;95878.69;5062310;28;20190;-85
2024/04/06 04:41:38;;;;;;;2.90;1.57;;;;;;;9.43;100.00;95873.63;5062994;28;20247;-85
2024/04/06 04:44:04;;;;;;;3.07;1.77;;;;;;;9.34;100.00;95875.66;5062881;28;20194;-85
2024/04/06 04:46:31;;;;;;;4.50;2.10;;;;;;;9.40;100.00;95871.41;5063550;28;20263;-85
2024/04/06 04:48:59;;;;;;;3.73;1.87;;;;;;;9.35;100.00;95884.34;5061605;28;20195;-85
2024/04/06 04:51:27;;;;;;;2.97;2.00;;;;;;;9.27;100.00;95888.00;5063432;28;20186;-85
2024/04/06 04:53:54;;;;;;;5.47;1.70;;;;;;;9.20;100.00;95887.19;5060011;28;20201;-85
2024/04/06 04:56:21;;;;;;;2.03;1.60;;;;;;;9.20;100.00;95886.38;5063386;28;20271;-84
2024/04/06 04:58:46;;;;;;;7.13;2.10;;;;;;;9.07;100.00;95889.00;5057538;28;20216;-85
2024/04/06 05:01:13;;;;;;;3.13;1.77;;;;;;;9.10;100.00;95888.63;5059175;28;20193;-84
2024/04/06 05:03:39;;;;;;;1.97;1.47;;;;;;;9.23;100.00;95886.78;5058434;28;20198;-85
2024/04/06 05:06:06;;;;;;;2.43;2.00;;;;;;;9.19;100.00;95882.97;5059461;28;20271;-85
2024/04/06 05:08:33;;;;;;;4.27;1.97;;;;;;;9.20;100.00;95886.38;5058383;28;20189;-85
2024/04/06 05:11:00;;;;;;;3.53;1.73;;;;;;;9.13;100.00;95888.19;5059024;28;20196;-85
2024/04/06 05:13:26;;;;;;;3.33;1.63;;;;;;;9.16;100.00;95891.25;5060752;28;20220;-85
2024/04/06 05:15:54;;;;;;;2.60;1.97;;;;;;;9.09;100.00;95898.31;5057222;28;20221;-85
2024/04/06 05:18:20;;;;;;;3.83;1.90;;;;;;;9.08;100.00;95899.31;5059506;28;20292;-85
2024/04/06 05:20:50;;;;;;;5.13;1.90;;;;;;;9.07;100.00;95899.53;5060288;28;20206;-85
2024/04/06 05:23:16;;;;;;;3.90;1.40;;;;;;;9.03;100.00;95904.38;5059760;28;20251;-85
2024/04/06 05:25:45;;;;;;;4.07;1.83;;;;;;;9.10;100.00;95914.91;5058792;28;20197;-85
2024/04/06 05:28:11;;;;;;;1.70;1.60;;;;;;;8.86;100.00;95911.84;5059459;28;20224;-85
2024/04/06 05:30:38;;;;;;;3.37;1.50;;;;;;;8.95;100.00;95910.63;5062076;28;20189;-85
2024/04/06 05:33:05;;;;;;;5.37;2.07;;;;;;;9.05;100.00;95916.28;5059955;28;20190;-84
2024/04/06 05:35:32;;;;;;;5.50;2.00;;;;;;;8.94;100.00;95924.78;5061199;28;20316;-85
2024/04/06 05:37:58;;;;;;;5.03;1.80;;;;;;;8.97;100.00;95923.56;5060215;28;20252;-86
2024/04/06 05:40:25;;;;;;;3.60;1.87;;;;;;;9.07;100.00;95917.91;5062027;28;20197;-85
2024/04/06 05:42:52;;;;;;;2.47;1.80;;;;;;;9.15;100.00;95923.78;5061500;28;20197;-85
2024/04/06 05:45:19;;;;;;;1.57;1.47;;;;;;;9.22;100.00;95914.06;5068218;28;20189;-85
2024/04/06 05:47:45;;;;;;;2.90;1.70;;;;;;;9.34;100.00;95916.91;5051038;28;20213;-85
2024/04/06 05:50:12;;;;;;;4.43;1.60;;;;;;;9.49;100.00;95912.25;5060197;28;20193;-85
2024/04/06 05:52:37;;;;;;;1.67;1.30;;;;;;;9.70;100.00;95901.50;5059893;28;20255;-86
2024/04/06 05:55:06;;;;;;;4.07;1.70;;;;;;;9.77;100.00;95904.13;5060466;28;20197;-85
2024/04/06 05:57:32;;;;;;;2.17;1.60;;;;;;;9.88;100.00;95904.28;5060849;28;20650;-86
2024/04/06 06:00:00;;;;;;;2.00;1.10;;;;;;;10.10;100.00;95897.75;5061405;28;20219;-85
2024/04/06 06:02:26;;;;;;;2.43;1.47;;;;;;;10.27;100.00;95888.41;5061113;28;20233;-85
2024/04/06 06:04:53;;;;;;;2.77;1.30;;;;;;;10.40;100.00;95898.88;5061651;28;20186;-85
2024/04/06 06:07:20;;;;;;;2.37;1.63;;;;;;;10.50;100.00;95890.53;5064168;28;20213;-84
2024/04/06 06:09:47;;;;;;;5.63;1.60;;;;;;;10.60;100.00;95884.78;5073276;28;20580;-83
2024/04/06 06:12:14;;;;;;;3.97;1.37;;;;;;;10.73;100.00;95884.72;5060550;28;20197;-85
2024/04/06 06:14:40;;;;;;;2.20;1.23;;;;;;;10.81;100.00;95884.44;5054802;28;20197;-85
2024/04/06 06:17:08;;;;;;;4.17;1.37;;;;;;;10.94;100.00;95876.47;5055417;28;20225;-84
2024/04/06 06:19:34;;;;;;;3.73;1.40;;;;;;;11.09;100.00;95884.88;5056054;28;20197;-84
2024/04/06 06:22:00;;;;;;;1.93;1.37;;;;;;;11.08;100.00;95878.00;5055406;28;20198;-85
2024/04/06 06:24:27;;;;;;;3.30;1.70;;;;;;;11.15;99.86;95872.66;5058211;28;20662;-85
2024/04/06 06:26:53;;;;;;;2.47;1.53;;;;;;;11.21;99.53;95877.88;5056764;28;20279;-84
2024/04/06 06:29:20;;;;;;;2.50;1.47;;;;;;;11.39;98.74;95885.06;5055878;28;20658;-84
2024/04/06 06:31:45;;;;;;;4.70;1.50;;;;;;;11.44;98.19;95885.19;5054786;28;20201;-84
2024/04/06 06:34:14;;;;;;;2.83;1.40;;;;;;;11.49;97.59;95891.44;5055993;28;20186;-84
2024/04/06 06:36:39;;;;;;;4.63;1.47;;;;;;;11.55;96.15;95892.41;5054825;28;20225;-84
2024/04/06 06:39:07;;;;;;;3.87;1.40;;;;;;;11.65;95.70;95888.25;5056464;28;20602;-84
2024/04/06 06:41:32;;;;;;;4.07;1.50;;;;;;;11.81;94.67;95876.34;5056326;28;20272;-85
2024/04/06 06:43:59;;;;;;;4.03;2.27;;;;;;;12.01;93.89;95889.31;5053706;28;20215;-85
2024/04/06 06:46:25;;;;;;;6.37;3.20;;;;;;;12.10;93.34;95883.53;5054038;28;20217;-84
2024/04/06 06:48:52;;;;;;;3.63;2.27;;;;;;;12.25;91.97;95902.44;5055946;28;20527;-84
2024/04/06 06:51:19;;;;;;;4.53;2.03;;;;;;;12.37;90.86;95891.94;5054138;28;20197;-84
2024/04/06 06:53:46;;;;;;;3.10;1.97;;;;;;;12.48;88.81;95901.78;5054650;28;20205;-84
2024/04/06 06:56:12;;;;;;;1.40;1.30;;;;;;;12.50;88.41;95889.16;5053832;28;20193;-84
2024/04/06 06:58:38;;;;;;;4.17;1.63;;;;;;;12.73;86.83;95893.72;5055698;28;20219;-84
2024/04/06 07:01:04;;;;;;;2.57;1.40;;;;;;;12.78;86.99;95897.31;5055244;28;20220;-85
2024/04/06 07:03:31;;;;;;;1.97;1.30;;;;;;;12.91;87.32;95905.03;5056139;28;20601;-85
2024/04/06 07:05:57;;;;;;;2.80;2.10;;;;;;;13.11;87.22;95902.97;5051066;28;20203;-84
2024/04/06 07:08:25;;;;;;;9.07;1.77;;;;;;;13.21;86.28;95889.16;5051136;28;20224;-87
2024/04/06 07:10:51;;;;;;;4.30;1.93;;;;;;;13.34;86.09;95898.75;5051293;28;20251;-86
2024/04/06 07:13:18;;;;;;;3.00;1.57;;;;;;;13.57;85.50;95885.53;5052688;28;20595;-86
2024/04/06 07:15:43;;;;;;;2.63;1.37;;;;;;;13.72;84.42;95896.47;5051627;28;20246;-84
2024/04/06 07:18:10;;;;;;;4.27;1.80;;;;;;;13.73;82.90;95903.38;5052074;28;20220;-85
2024/04/06 07:20:36;;;;;;;2.83;1.37;;;;;;;13.92;82.83;95894.28;5053848;28;20197;-85
2024/04/06 07:23:03;;;;;;;1.57;1.33;;;;;;;13.98;82.26;95897.84;5052515;28;20209;-86
2024/04/06 07:25:30;;;;;;;2.47;1.50;;;;;;;14.02;80.90;95910.38;5053414;28;20242;-85
2024/04/06 07:27:57;;;;;;;2.70;1.33;;;;;;;14.05;81.58;95909.13;5052002;28;20228;-86
2024/04/06 07:30:23;;;;;;;2.80;1.20;;;;;;;14.06;82.03;95919.47;5052839;28;20556;-85
2024/04/06 07:32:50;;;;;;;1.90;1.30;;;;;;;14.17;82.87;95918.66;5053150;28;20205;-85
2024/04/06 07:35:16;;;;;;;2.53;1.40;;;;;;;14.33;81.98;95912.66;5053929;28;20768;-85
2024/04/06 07:37:42;;;;;;;5.80;1.47;;;;;;;14.31;82.26;95906.78;5052580;28;20229;-85
2024/04/06 07:40:09;;;;;;;1.80;1.33;;;;;;;14.40;82.31;95904.56;5054763;28;20201;-85
2024/04/06 07:42:38;;;;;;;3.27;1.30;;;;;;;14.73;81.83;95895.94;5057523;28;20198;-85
2024/04/06 07:45:04;;;;;;;7.60;1.57;;;;;;;14.74;81.08;95901.03;5056632;28;20246;-86
2024/04/06 07:47:31;;;;;;;2.50;1.37;;;;;;;14.77;81.81;95902.41;5055486;28;20309;-85
2024/04/06 07:49:57;;;;;;;2.87;1.60;;;;;;;14.71;81.05;95911.28;5056709;28;20201;-86
2024/04/06 07:52:24;;;;;;;3.73;1.90;;;;;;;14.74;80.75;95901.03;5057834;28;20201;-86
2024/04/06 07:54:50;;;;;;;3.80;2.17;;;;;;;14.84;80.60;95908.38;5057722;28;20204;-86
2024/04/06 07:57:17;;;;;;;4.13;2.10;;;;;;;15.03;80.86;95902.59;5060108;28;20252;-86
2024/04/06 07:59:45;;;;;;;4.07;3.27;;;;;;;15.18;79.91;95907.38;5058032;28;20223;-86
2024/04/06 08:02:11;;;;;;;2.90;2.17;;;;;;;15.37;78.87;95906.13;5058121;28;20657;-86
2024/04/06 08:04:37;;;;;;;3.57;2.80;;;;;;;15.40;79.25;95907.50;5056600;28;20193;-86
2024/04/06 08:07:06;;;;;;;6.60;4.60;;;;;;;15.34;78.63;95908.44;5058733;28;20308;-85
2024/04/06 08:09:32;;;;;;;10.13;7.87;;;;;;;15.47;78.16;95914.28;5058160;28;20189;-86
2024/04/06 08:11:59;;;;;;;4.67;2.70;;;;;;;15.58;77.66;95912.59;5060372;28;20207;-86
2024/04/06 08:14:25;;;;;;;3.40;2.03;;;;;;;15.66;77.63;95915.63;5058851;28;20205;-86
2024/04/06 08:16:53;;;;;;;5.00;1.83;;;;;;;15.85;76.83;95909.03;5060240;28;20206;-85
2024/04/06 08:19:19;;;;;;;3.40;1.20;;;;;;;16.02;76.62;95895.72;5058629;28;20331;-86
2024/04/06 08:21:45;;;;;;;5.30;3.90;;;;;;;16.26;75.54;95885.69;5041367;28;20214;-86
2024/04/06 08:24:12;;;;;;;9.40;3.00;;;;;;;16.42;74.68;95887.47;5039521;28;20248;-87
2024/04/06 08:26:38;;;;;;;4.33;2.10;;;;;;;16.49;74.82;95880.09;5037389;28;20214;-86
2024/04/06 08:29:05;;;;;;;3.43;1.77;;;;;;;16.65;73.80;95881.09;5037975;28;20190;-86
2024/04/06 08:31:30;;;;;;;4.40;1.50;;;;;;;16.72;73.77;95882.53;5039047;28;20217;-87
2024/04/06 08:33:59;;;;;;;2.73;1.03;;;;;;;16.69;72.59;95887.53;5039504;28;20214;-87
2024/04/06 08:36:24;;;;;;;1.20;1.10;;;;;;;16.84;72.61;95877.88;5038965;28;20288;-87
2024/04/06 08:38:51;;;;;;;2.50;1.30;;;;;;;16.92;73.06;95880.06;5038747;28;20662;-86
2024/04/06 08:41:18;;;;;;;4.27;1.80;;;;;;;17.03;71.83;95875.66;5039148;28;20244;-86
2024/04/06 08:43:45;;;;;;;1.87;1.23;;;;;;;17.31;70.32;95879.91;5038348;28;20200;-87
2024/04/06 08:46:10;;;;;;;1.43;1.10;;;;;;;17.52;70.01;95874.53;5040949;28;20531;-87
2024/04/06 08:48:38;;;;;;;3.97;1.60;;;;;;;17.63;69.98;95883.41;5041135;28;20194;-87
2024/04/06 08:51:06;;;;;;;9.03;1.40;;;;;;;17.69;69.75;95885.06;5040870;28;20674;-87
2024/04/06 08:53:33;;;;;;;12.73;7.93;;;;;;;17.72;69.26;95882.66;5040542;28;20206;-87
2024/04/06 08:56:03;;;;;;;3.67;2.50;;;;;;;17.85;69.54;95879.53;5041646;28;20190;-87
2024/04/06 08:58:30;;;;;;;2.43;1.40;;;;;;;18.00;68.98;95872.72;5039749;28;20221;-87
2024/04/06 09:00:56;;;;;;;6.50;2.63;;;;;;;18.08;68.68;95874.91;5041505;28;20288;-87
2024/04/06 09:03:22;;;;;;;13.20;7.20;;;;;;;18.16;68.18;95867.19;5041931;28;20658;-87
2024/04/06 09:05:48;;;;;;;26.50;14.63;;;;;;;18.35;68.22;95867.56;5039857;28;20244;-87
2024/04/06 09:08:17;;;;;;;25.37;12.90;;;;;;;18.31;67.36;95867.28;5039292;28;20221;-87
2024/04/06 09:10:43;;;;;;;4.77;2.60;;;;;;;18.33;66.99;95859.81;5038798;28;20193;-87
2024/04/06 09:13:09;;;;;;;2.80;1.20;;;;;;;18.41;66.48;95859.31;5038103;28;20630;-87
2024/04/06 09:15:35;;;;;;;4.10;1.57;;;;;;;18.76;65.03;95847.19;5038529;28;20198;-86
2024/04/06 09:18:02;;;;;;;4.93;1.70;;;;;;;18.92;64.56;95843.50;5040309;28;20593;-87
2024/04/06 09:20:28;;;;;;;4.53;1.60;;;;;;;19.08;63.94;95843.25;5044940;28;20205;-86
2024/04/06 09:22:58;;;;;;;3.80;1.50;;;;;;;18.83;64.17;95845.91;5041138;28;20190;-87
2024/04/06 09:25:25;;;;;;;3.77;1.90;;;;;;;19.04;63.64;95852.84;5039807;28;20186;-87
2024/04/06 09:27:52;;;;;;;11.10;1.77;;;;;;;19.17;63.14;95851.53;5039210;28;20282;-86
2024/04/06 09:30:19;;;;;;;4.30;1.40;;;;;;;19.32;62.77;95840.88;5037098;28;20190;-86
2024/04/06 09:32:45;;;;;;;8.83;1.97;;;;;;;19.29;61.96;95839.53;5035857;28;20213;-86
2024/04/06 09:35:11;;;;;;;4.93;1.27;;;;;;;19.59;59.81;95836.06;5035547;28;20608;-86
2024/04/06 09:37:39;;;;;;;2.83;0.90;;;;;;;19.51;60.11;95830.47;5036310;28;20223;-86
2024/04/06 09:40:08;;;;;;;2.73;1.33;;;;;;;19.51;59.66;95827.81;5034491;28;20225;-87
2024/04/06 09:42:37;;;;;;;4.83;1.00;;;;;;;19.68;58.92;95830.97;5034837;28;20192;-87
2024/04/06 09:45:04;;;;;;;5.50;1.20;;;;;;;19.89;58.71;95819.19;5034555;28;20293;-87
2024/04/06 09:47:31;;;;;;;4.77;1.30;;;;;;;20.06;58.36;95813.53;5034689;28;20222;-87
2024/04/06 09:49:57;;;;;;;6.57;1.40;;;;;;;20.04;58.58;95818.34;5034929;28;20262;-86
2024/04/06 09:52:24;;;;;;;1.67;1.10;;;;;;;20.22;57.64;95812.41;5034900;28;20201;-87
2024/04/06 09:54:50;;;;;;;1.57;1.03;;;;;;;20.27;57.76;95813.22;5034270;28;20199;-86
2024/04/06 09:57:18;;;;;;;4.00;1.40;;;;;;;20.38;57.17;95803.25;5035105;28;20785;-87
2024/04/06 09:59:45;;;;;;;2.17;1.10;;;;;;;20.52;57.01;95796.22;5035465;28;20193;-87
2024/04/06 10:02:21;;;;;;;4.20;1.20;;;;;;;20.57;56.68;95797.00;5036026;28;20201;-87
2024/04/06 10:04:53;;;;;;;4.13;1.00;;;;;;;20.71;56.41;95793.72;5034755;28;20545;-87
2024/04/06 10:07:26;;;;;;;5.37;1.20;;;;;;;20.85;55.27;95790.16;5034683;28;20208;-86
2024/04/06 10:09:58;;;;;;;6.97;1.37;;;;;;;20.93;54.62;95792.25;5036190;28;20193;-88
2024/04/06 10:12:32;;;;;;;1.47;1.00;;;;;;;21.09;54.17;95787.59;5036497;28;20193;-87
2024/04/06 10:15:01;;;;;;;1.60;1.10;;;;;;;21.30;51.90;95784.50;5033218;28;20203;-87
2024/04/06 10:17:28;;;;;;;1.93;1.10;;;;;;;21.38;52.81;95785.75;5034718;28;20717;-87
2024/04/06 10:19:54;;;;;;;3.37;1.03;;;;;;;21.39;53.11;95786.53;5036085;28;20201;-87
2024/04/06 10:22:24;;;;;;;1.60;1.20;;;;;;;21.42;53.53;95780.63;5034886;28;20205;-86
2024/04/06 10:24:53;;;;;;;2.63;1.13;;;;;;;21.54;51.92;95764.97;5036323;28;20643;-87
2024/04/06 10:27:25;;;;;;;2.77;1.20;;;;;;;21.61;50.39;95760.88;5035176;28;20223;-87
2024/04/06 10:29:52;;;;;;;14.20;2.03;;;;;;;21.75;51.43;95769.84;5035337;28;20610;-87
2024/04/06 10:32:20;;;;;;;6.53;2.07;;;;;;;21.86;50.91;95760.66;5034781;28;20197;-87
2024/04/06 10:34:46;;;;;;;3.27;1.40;;;;;;;21.97;51.55;95758.63;5037381;28;20199;-88
2024/04/06 10:37:12;;;;;;;2.07;1.00;;;;;;;22.12;48.95;95763.84;5064463;28;20229;-87
2024/04/06 10:39:38;;;;;;;2.57;0.90;;;;;;;22.20;47.75;95747.09;5052073;28;20192;-87
2024/04/06 10:42:05;;;;;;;1.77;1.03;;;;;;;22.20;46.10;95747.09;5072553;28;20189;-87
2024/04/06 10:44:31;;;;;;;4.00;0.73;;;;;;;22.53;39.83;95743.44;5054441;28;20201;-87
2024/04/06 10:46:58;;;;;;;6.70;1.13;;;;;;;22.43;39.14;95732.81;5055585;28;20220;-86
2024/04/06 10:49:25;;;;;;;1.53;0.90;;;;;;;22.50;38.29;95735.13;5060401;28;20202;-87
2024/04/06 10:51:52;;;;;;;3.77;0.53;;;;;;;22.57;37.88;95741.75;5055471;28;20570;-88
2024/04/06 10:54:18;;;;;;;8.53;4.80;;;;;;;22.75;36.33;95737.50;5067576;28;20258;-87
2024/04/06 10:56:45;;;;;;;11.43;1.83;;;;;;;22.82;36.96;95739.81;5058510;28;20226;-88
2024/04/06 10:59:12;;;;;;;3.80;0.80;;;;;;;22.88;34.84;95738.66;5076998;28;20196;-88
2024/04/06 11:01:40;;;;;;;1.77;0.60;;;;;;;23.02;35.19;95734.13;5076737;28;20199;-87
2024/04/06 11:04:06;;;;;;;6.73;0.90;;;;;;;23.18;34.92;95738.16;5065855;28;20573;-87
2024/04/06 11:06:34;;;;;;;1.43;0.80;;;;;;;23.36;36.23;95750.81;5058121;28;20213;-87
2024/04/06 11:09:01;;;;;;;3.13;0.50;;;;;;;23.33;34.43;95749.47;5058782;28;20276;-88
2024/04/06 11:11:29;;;;;;;2.73;0.80;;;;;;;23.45;34.62;95745.53;5070124;28;20579;-88
2024/04/06 11:13:55;;;;;;;3.30;1.27;;;;;;;23.47;34.78;95728.03;5055125;28;20246;-88
2024/04/06 11:16:22;;;;;;;2.83;0.90;;;;;;;23.42;33.86;95728.09;5060562;28;20194;-86
2024/04/06 11:18:48;;;;;;;0.90;0.50;;;;;;;23.38;32.21;95737.06;5066778;28;20265;-86
2024/04/06 11:21:15;;;;;;;2.47;0.70;;;;;;;23.44;32.41;95739.38;5059897;28;20283;-85
2024/04/06 11:23:43;;;;;;;1.47;1.00;;;;;;;23.46;33.46;95720.22;5064677;28;20601;-86
2024/04/06 11:26:10;;;;;;;1.50;0.73;;;;;;;23.52;33.21;95727.13;5050754;28;20525;-86
2024/04/06 11:28:36;;;;;;;3.20;0.70;;;;;;;23.48;33.59;95726.91;5057788;28;20189;-86